createdAt,value
2019-01-15T00:00:50.871Z,995.37
2019-01-15T00:01:50.902Z,995.42
2019-01-15T00:02:50.937Z,995.41
2019-01-15T00:03:50.974Z,995.45
2019-01-15T00:04:51.008Z,995.46
2019-01-15T00:05:51.106Z,995.47
2019-01-15T00:06:51.082Z,995.49
2019-01-15T00:07:51.117Z,995.46
2019-01-15T00:08:51.162Z,995.49
2019-01-15T00:09:51.190Z,995.49
2019-01-15T00:10:51.229Z,995.54
2019-01-15T00:11:51.262Z,995.55
2019-01-15T00:12:51.296Z,995.50
2019-01-15T00:13:51.345Z,995.52
2019-01-15T00:14:51.383Z,995.57
2019-01-15T00:15:51.405Z,995.55
2019-01-15T00:16:51.438Z,995.62
2019-01-15T00:17:51.473Z,995.64
2019-01-15T00:18:51.522Z,995.68
2019-01-15T00:19:51.555Z,995.69
2019-01-15T00:20:51.584Z,995.68
2019-01-15T00:21:51.620Z,995.67
2019-01-15T00:22:51.655Z,995.64
2019-01-15T00:23:51.691Z,995.65
2019-01-15T00:24:51.727Z,995.67
2019-01-15T00:25:51.765Z,995.67
2019-01-15T00:26:51.800Z,995.65
2019-01-15T00:27:51.835Z,995.65
2019-01-15T00:28:51.871Z,995.67
2019-01-15T00:29:51.906Z,995.68
2019-01-15T00:30:51.943Z,995.68
2019-01-15T00:31:51.979Z,995.73
2019-01-15T00:32:52.018Z,995.74
2019-01-15T00:33:52.050Z,995.71
2019-01-15T00:34:52.087Z,995.79
2019-01-15T00:35:52.127Z,995.76
2019-01-15T00:36:52.158Z,995.80
2019-01-15T00:37:52.194Z,995.87
2019-01-15T00:38:52.231Z,995.88
2019-01-15T00:39:52.266Z,995.82
2019-01-15T00:40:52.303Z,995.86
2019-01-15T00:41:52.342Z,995.88
2019-01-15T00:42:52.376Z,995.88
2019-01-15T00:43:52.413Z,995.89
2019-01-15T00:44:52.448Z,995.89
2019-01-15T00:45:52.484Z,995.88
2019-01-15T00:46:52.567Z,995.95
2019-01-15T00:47:52.554Z,995.89
2019-01-15T00:48:52.601Z,995.93
2019-01-15T00:49:52.625Z,995.99
2019-01-15T00:50:52.662Z,995.99
2019-01-15T00:51:52.698Z,995.98
2019-01-15T00:52:52.738Z,995.98
2019-01-15T00:53:52.766Z,996.00
2019-01-15T00:54:52.807Z,995.96
2019-01-15T00:55:52.841Z,995.93
2019-01-15T00:56:52.880Z,995.99
2019-01-15T00:57:52.913Z,995.98
2019-01-15T00:58:52.948Z,995.97
2019-01-15T00:59:52.984Z,995.99
2019-01-15T01:00:53.019Z,996.02
2019-01-15T01:01:53.075Z,996.00
2019-01-15T01:02:53.100Z,995.98
2019-01-15T01:03:53.129Z,995.96
2019-01-15T01:04:53.166Z,995.98
2019-01-15T01:05:53.198Z,995.96
2019-01-15T01:06:53.234Z,995.96
2019-01-15T01:07:53.270Z,995.96
2019-01-15T01:08:53.307Z,995.99
2019-01-15T01:09:53.343Z,995.96
2019-01-15T01:10:53.386Z,995.98
2019-01-15T01:11:53.415Z,996.00
2019-01-15T01:12:53.450Z,996.00
2019-01-15T01:13:53.488Z,996.00
2019-01-15T01:14:53.524Z,995.99
2019-01-15T01:15:53.558Z,996.04
2019-01-15T01:16:53.595Z,996.06
2019-01-15T01:17:53.640Z,996.03
2019-01-15T01:18:53.666Z,996.02
2019-01-15T01:19:53.709Z,996.05
2019-01-15T01:20:53.739Z,996.04
2019-01-15T01:21:53.774Z,996.04
2019-01-15T01:22:53.811Z,996.10
2019-01-15T01:23:53.845Z,996.14
2019-01-15T01:24:53.881Z,996.14
2019-01-15T01:25:53.918Z,996.07
2019-01-15T01:26:53.954Z,996.11
2019-01-15T01:27:53.990Z,996.10
2019-01-15T01:28:54.035Z,996.07
2019-01-15T01:29:54.061Z,996.06
2019-01-15T01:30:54.099Z,996.07
2019-01-15T01:31:54.134Z,996.01
2019-01-15T01:32:54.169Z,996.03
2019-01-15T01:33:54.262Z,995.99
2019-01-15T01:34:54.257Z,996.00
2019-01-15T01:35:54.278Z,996.07
2019-01-15T01:36:54.312Z,996.06
2019-01-15T01:37:54.348Z,996.05
2019-01-15T01:38:54.385Z,996.07
2019-01-15T01:39:54.419Z,996.11
2019-01-15T01:40:54.455Z,996.06
2019-01-15T01:41:54.491Z,996.11
2019-01-15T01:42:54.527Z,996.04
2019-01-15T01:43:54.563Z,996.09
2019-01-15T01:44:54.604Z,996.08
2019-01-15T01:45:54.639Z,996.06
2019-01-15T01:46:54.671Z,996.03
2019-01-15T01:47:54.710Z,996.02
2019-01-15T01:48:54.741Z,996.00
2019-01-15T01:49:54.777Z,996.06
2019-01-15T01:50:54.811Z,996.04
2019-01-15T01:51:54.846Z,996.06
2019-01-15T01:52:54.889Z,995.99
2019-01-15T01:53:54.920Z,996.00
2019-01-15T01:54:54.955Z,996.02
2019-01-15T01:55:54.991Z,996.05
2019-01-15T01:56:55.035Z,996.06
2019-01-15T01:57:55.061Z,996.04
2019-01-15T01:58:55.100Z,996.08
2019-01-15T01:59:55.134Z,996.07
2019-01-15T02:00:55.173Z,996.12
2019-01-15T02:01:55.204Z,996.13
2019-01-15T02:02:55.241Z,996.14
2019-01-15T02:03:55.275Z,996.17
2019-01-15T02:04:55.311Z,996.14
2019-01-15T02:05:55.348Z,996.12
2019-01-15T02:06:55.382Z,996.17
2019-01-15T02:07:55.416Z,996.17
2019-01-15T02:08:55.453Z,996.18
2019-01-15T02:09:55.490Z,996.15
2019-01-15T02:10:55.525Z,996.13
2019-01-15T02:11:55.558Z,996.22
2019-01-15T02:12:55.601Z,996.18
2019-01-15T02:13:55.634Z,996.12
2019-01-15T02:14:55.667Z,996.14
2019-01-15T02:15:55.710Z,996.19
2019-01-15T02:16:55.739Z,996.22
2019-01-15T02:17:55.774Z,996.23
2019-01-15T02:18:55.808Z,996.16
2019-01-15T02:19:55.844Z,996.18
2019-01-15T02:20:55.890Z,996.16
2019-01-15T02:21:55.916Z,996.18
2019-01-15T02:22:55.951Z,996.20
2019-01-15T02:23:55.987Z,996.21
2019-01-15T02:24:56.026Z,996.20
2019-01-15T02:25:56.059Z,996.20
2019-01-15T02:26:56.103Z,996.19
2019-01-15T02:27:56.130Z,996.14
2019-01-15T02:28:56.168Z,996.20
2019-01-15T02:29:56.203Z,996.25
2019-01-15T02:30:56.238Z,996.21
2019-01-15T02:31:56.273Z,996.18
2019-01-15T02:32:56.309Z,996.19
2019-01-15T02:33:56.349Z,996.20
2019-01-15T02:34:56.383Z,996.23
2019-01-15T02:35:56.438Z,996.31
2019-01-15T02:36:56.454Z,996.33
2019-01-15T02:37:56.486Z,996.36
2019-01-15T02:38:56.527Z,996.40
2019-01-15T02:39:56.563Z,996.40
2019-01-15T02:40:56.596Z,996.37
2019-01-15T02:41:56.631Z,996.32
2019-01-15T02:42:56.668Z,996.33
2019-01-15T02:43:56.702Z,996.36
2019-01-15T02:44:56.738Z,996.36
2019-01-15T02:45:56.777Z,996.34
2019-01-15T02:46:56.811Z,996.36
2019-01-15T02:47:56.845Z,996.35
2019-01-15T02:48:56.881Z,996.39
2019-01-15T02:49:56.918Z,996.42
2019-01-15T02:50:56.953Z,996.42
2019-01-15T02:51:56.989Z,996.40
2019-01-15T02:52:57.026Z,996.34
2019-01-15T02:53:58.794Z,996.39
2019-01-15T02:54:57.099Z,996.33
2019-01-15T02:55:57.132Z,996.35
2019-01-15T02:56:57.170Z,996.35
2019-01-15T02:57:57.205Z,996.38
2019-01-15T02:58:57.241Z,996.34
2019-01-15T02:59:57.276Z,996.40
2019-01-15T03:00:57.311Z,996.41
2019-01-15T03:01:57.348Z,996.37
2019-01-15T03:02:57.385Z,996.34
2019-01-15T03:03:57.418Z,996.31
2019-01-15T03:04:57.467Z,996.35
2019-01-15T03:05:57.493Z,996.31
2019-01-15T03:06:57.529Z,996.33
2019-01-15T03:07:57.575Z,996.29
2019-01-15T03:08:57.597Z,996.27
2019-01-15T03:09:57.649Z,996.26
2019-01-15T03:10:57.671Z,996.21
2019-01-15T03:11:57.708Z,996.22
2019-01-15T03:12:57.771Z,996.19
2019-01-15T03:13:57.777Z,996.16
2019-01-15T03:14:57.813Z,996.14
2019-01-15T03:15:57.848Z,996.19
2019-01-15T03:16:57.887Z,996.16
2019-01-15T03:17:57.920Z,996.19
2019-01-15T03:18:57.957Z,996.20
2019-01-15T03:19:57.992Z,996.21
2019-01-15T03:20:58.028Z,996.23
2019-01-15T03:21:58.070Z,996.23
2019-01-15T03:22:58.099Z,996.26
2019-01-15T03:23:58.134Z,996.19
2019-01-15T03:24:58.176Z,996.22
2019-01-15T03:25:58.207Z,996.21
2019-01-15T03:26:58.244Z,996.21
2019-01-15T03:27:58.277Z,996.18
2019-01-15T03:28:58.317Z,996.20
2019-01-15T03:29:58.351Z,996.25
2019-01-15T03:30:58.387Z,996.23
2019-01-15T03:31:58.422Z,996.18
2019-01-15T03:32:58.468Z,996.15
2019-01-15T03:33:58.500Z,996.16
2019-01-15T03:34:58.531Z,996.16
2019-01-15T03:35:58.569Z,996.14
2019-01-15T03:36:58.606Z,996.12
2019-01-15T03:37:58.636Z,996.12
2019-01-15T03:38:58.676Z,996.17
2019-01-15T03:39:58.709Z,996.13
2019-01-15T03:40:58.749Z,996.12
2019-01-15T03:41:58.785Z,996.15
2019-01-15T03:43:03.583Z,996.20
2019-01-15T03:43:58.851Z,996.14
2019-01-15T03:44:58.889Z,996.16
2019-01-15T03:46:04.228Z,996.21
2019-01-15T03:46:59.012Z,996.22
2019-01-15T03:47:58.997Z,996.18
2019-01-15T03:48:59.030Z,996.12
2019-01-15T03:49:59.066Z,996.12
2019-01-15T03:50:59.102Z,996.16
2019-01-15T03:51:59.386Z,996.19
2019-01-15T03:52:59.173Z,996.14
2019-01-15T03:53:59.209Z,996.16
2019-01-15T03:54:59.244Z,996.16
2019-01-15T03:55:59.283Z,996.11
2019-01-15T03:56:59.318Z,996.11
2019-01-15T03:57:59.351Z,996.11
2019-01-15T03:58:59.387Z,996.08
2019-01-15T03:59:59.928Z,996.10
2019-01-15T04:00:59.460Z,996.11
2019-01-15T04:01:59.497Z,996.15
2019-01-15T04:02:59.532Z,996.10
2019-01-15T04:03:59.573Z,996.15
2019-01-15T04:04:59.603Z,996.13
2019-01-15T04:05:59.638Z,996.16
2019-01-15T04:06:59.676Z,996.12
2019-01-15T04:07:59.709Z,996.18
2019-01-15T04:08:59.745Z,996.13
2019-01-15T04:09:59.779Z,996.12
2019-01-15T04:10:59.830Z,996.12
2019-01-15T04:11:59.860Z,996.16
2019-01-15T04:13:00.124Z,996.16
2019-01-15T04:13:59.927Z,996.22
2019-01-15T04:14:59.980Z,996.20
2019-01-15T04:15:59.995Z,996.19
2019-01-15T04:17:00.031Z,996.17
2019-01-15T04:18:00.080Z,996.17
2019-01-15T04:19:00.103Z,996.20
2019-01-15T04:20:00.262Z,996.14
2019-01-15T04:21:00.187Z,996.22
2019-01-15T04:22:00.229Z,996.24
2019-01-15T04:23:00.261Z,996.23
2019-01-15T04:24:00.281Z,996.24
2019-01-15T04:25:00.315Z,996.27
2019-01-15T04:26:00.359Z,996.26
2019-01-15T04:27:00.388Z,996.28
2019-01-15T04:28:00.424Z,996.28
2019-01-15T04:29:00.460Z,996.32
2019-01-15T04:30:00.502Z,996.33
2019-01-15T04:31:00.530Z,996.39
2019-01-15T04:32:00.568Z,996.39
2019-01-15T04:33:00.601Z,996.33
2019-01-15T04:34:00.646Z,996.26
2019-01-15T04:35:00.675Z,996.33
2019-01-15T04:36:00.707Z,996.26
2019-01-15T04:37:00.847Z,996.27
2019-01-15T04:38:00.780Z,996.26
2019-01-15T04:39:00.816Z,996.23
2019-01-15T04:40:00.850Z,996.23
2019-01-15T04:41:00.885Z,996.22
2019-01-15T04:42:00.927Z,996.19
2019-01-15T04:43:00.957Z,996.21
2019-01-15T04:44:00.993Z,996.21
2019-01-15T04:45:01.029Z,996.19
2019-01-15T04:46:01.065Z,996.23
2019-01-15T04:47:01.100Z,996.19
2019-01-15T04:48:01.134Z,996.11
2019-01-15T04:49:02.675Z,996.20
2019-01-15T04:50:01.209Z,996.15
2019-01-15T04:51:01.243Z,996.17
2019-01-15T04:52:01.277Z,996.16
2019-01-15T04:53:01.313Z,996.19
2019-01-15T04:54:01.350Z,996.19
2019-01-15T04:55:01.387Z,996.24
2019-01-15T04:56:01.420Z,996.26
2019-01-15T04:57:01.457Z,996.23
2019-01-15T04:58:01.491Z,996.27
2019-01-15T04:59:01.529Z,996.37
2019-01-15T05:00:01.576Z,996.24
2019-01-15T05:01:01.599Z,996.38
2019-01-15T05:02:01.634Z,996.37
2019-01-15T05:03:01.670Z,996.38
2019-01-15T05:04:01.708Z,996.38
2019-01-15T05:05:01.742Z,996.35
2019-01-15T05:06:01.791Z,996.37
2019-01-15T05:07:01.815Z,996.33
2019-01-15T05:08:01.847Z,996.31
2019-01-15T05:09:01.886Z,996.37
2019-01-15T05:10:01.929Z,996.38
2019-01-15T05:11:01.956Z,996.40
2019-01-15T05:12:01.992Z,996.38
2019-01-15T05:13:02.026Z,996.34
2019-01-15T05:14:02.067Z,996.38
2019-01-15T05:15:02.099Z,996.39
2019-01-15T05:16:02.134Z,996.34
2019-01-15T05:17:02.171Z,996.34
2019-01-15T05:18:02.206Z,996.27
2019-01-15T05:19:02.242Z,996.28
2019-01-15T05:20:02.286Z,996.20
2019-01-15T05:21:02.315Z,996.25
2019-01-15T05:22:02.351Z,996.31
2019-01-15T05:23:02.386Z,996.28
2019-01-15T05:24:02.420Z,996.31
2019-01-15T05:25:02.456Z,996.32
2019-01-15T05:26:02.492Z,996.31
2019-01-15T05:27:02.528Z,996.27
2019-01-15T05:28:02.562Z,996.28
2019-01-15T05:29:02.599Z,996.28
2019-01-15T05:30:02.635Z,996.27
2019-01-15T05:31:02.672Z,996.24
2019-01-15T05:32:02.708Z,996.20
2019-01-15T05:33:02.741Z,996.23
2019-01-15T05:34:02.778Z,996.25
2019-01-15T05:35:02.813Z,996.22
2019-01-15T05:36:02.849Z,996.22
2019-01-15T05:37:02.887Z,996.23
2019-01-15T05:38:02.919Z,996.25
2019-01-15T05:39:02.957Z,996.27
2019-01-15T05:40:02.990Z,996.24
2019-01-15T05:41:03.027Z,996.20
2019-01-15T05:42:03.062Z,996.18
2019-01-15T05:43:03.100Z,996.16
2019-01-15T05:44:03.134Z,996.19
2019-01-15T05:45:03.224Z,996.23
2019-01-15T05:46:03.214Z,996.24
2019-01-15T05:47:03.245Z,996.18
2019-01-15T05:48:03.276Z,996.18
2019-01-15T05:49:03.326Z,996.22
2019-01-15T05:50:03.351Z,996.12
2019-01-15T05:51:03.384Z,996.15
2019-01-15T05:52:03.428Z,996.19
2019-01-15T05:53:03.456Z,996.19
2019-01-15T05:54:03.491Z,996.20
2019-01-15T05:55:03.531Z,996.17
2019-01-15T05:56:03.564Z,996.21
2019-01-15T05:57:03.604Z,996.23
2019-01-15T05:58:03.637Z,996.23
2019-01-15T05:59:03.670Z,996.24
2019-01-15T06:00:03.706Z,996.18
2019-01-15T06:01:03.743Z,996.19
2019-01-15T06:02:03.777Z,996.15
2019-01-15T06:03:03.813Z,996.15
2019-01-15T06:04:03.847Z,996.09
2019-01-15T06:05:03.883Z,996.08
2019-01-15T06:06:03.921Z,996.08
2019-01-15T06:07:03.974Z,996.08
2019-01-15T06:08:03.992Z,996.08
2019-01-15T06:09:04.027Z,996.04
2019-01-15T06:10:04.166Z,996.12
2019-01-15T06:11:04.099Z,996.05
2019-01-15T06:12:04.141Z,996.10
2019-01-15T06:13:04.169Z,996.10
2019-01-15T06:14:04.206Z,996.07
2019-01-15T06:15:04.243Z,996.07
2019-01-15T06:16:04.278Z,996.10
2019-01-15T06:17:04.314Z,996.11
2019-01-15T06:18:04.351Z,996.08
2019-01-15T06:19:04.387Z,996.10
2019-01-15T06:20:04.420Z,996.13
2019-01-15T06:21:04.457Z,996.15
2019-01-15T06:22:04.493Z,996.10
2019-01-15T06:23:04.528Z,996.10
2019-01-15T06:24:04.564Z,996.09
2019-01-15T06:25:04.607Z,996.13
2019-01-15T06:26:04.637Z,996.09
2019-01-15T06:27:04.674Z,996.10
2019-01-15T06:28:04.718Z,996.12
2019-01-15T06:29:04.745Z,996.08
2019-01-15T06:30:04.782Z,996.10
2019-01-15T06:31:04.818Z,996.11
2019-01-15T06:32:04.853Z,996.11
2019-01-15T06:33:04.890Z,996.03
2019-01-15T06:34:04.935Z,996.08
2019-01-15T06:35:04.963Z,996.07
2019-01-15T06:36:04.997Z,996.03
2019-01-15T06:37:05.030Z,996.06
2019-01-15T06:38:05.067Z,996.03
2019-01-15T06:39:05.103Z,996.05
2019-01-15T06:40:05.137Z,996.11
2019-01-15T06:41:05.174Z,996.05
2019-01-15T06:42:05.209Z,996.07
2019-01-15T06:43:05.248Z,996.09
2019-01-15T06:44:05.284Z,996.11
2019-01-15T06:45:05.319Z,996.07
2019-01-15T06:46:05.364Z,996.10
2019-01-15T06:47:05.391Z,996.04
2019-01-15T06:48:05.432Z,996.07
2019-01-15T06:49:05.462Z,996.04
2019-01-15T06:50:05.498Z,996.09
2019-01-15T06:51:05.533Z,996.17
2019-01-15T06:52:05.568Z,996.12
2019-01-15T06:53:05.605Z,996.17
2019-01-15T06:54:05.644Z,996.19
2019-01-15T06:55:05.690Z,996.18
2019-01-15T06:56:05.717Z,996.17
2019-01-15T06:57:05.800Z,996.15
2019-01-15T06:58:05.786Z,996.17
2019-01-15T06:59:05.830Z,996.17
2019-01-15T07:00:05.865Z,996.16
2019-01-15T07:01:05.894Z,996.13
2019-01-15T07:02:05.941Z,996.14
2019-01-15T07:03:05.971Z,996.18
2019-01-15T07:04:06.001Z,996.10
2019-01-15T07:05:06.039Z,996.10
2019-01-15T07:06:06.074Z,996.08
2019-01-15T07:07:06.109Z,996.12
2019-01-15T07:08:06.146Z,996.14
2019-01-15T07:09:06.180Z,996.04
2019-01-15T07:10:06.218Z,996.11
2019-01-15T07:11:06.254Z,996.08
2019-01-15T07:12:06.289Z,996.07
2019-01-15T07:13:06.325Z,996.10
2019-01-15T07:14:06.462Z,996.02
2019-01-15T07:15:06.401Z,996.07
2019-01-15T07:16:06.432Z,996.05
2019-01-15T07:17:06.470Z,996.08
2019-01-15T07:18:06.506Z,996.04
2019-01-15T07:19:06.545Z,996.10
2019-01-15T07:20:06.576Z,996.11
2019-01-15T07:21:06.616Z,996.14
2019-01-15T07:22:06.654Z,996.18
2019-01-15T07:23:06.686Z,996.22
2019-01-15T07:24:06.729Z,996.23
2019-01-15T07:25:06.758Z,996.27
2019-01-15T07:26:06.794Z,996.29
2019-01-15T07:27:06.831Z,996.27
2019-01-15T07:28:06.870Z,996.28
2019-01-15T07:29:06.913Z,996.21
2019-01-15T07:30:06.940Z,996.18
2019-01-15T07:31:06.974Z,996.19
2019-01-15T07:32:07.011Z,996.13
2019-01-15T07:33:07.049Z,996.25
2019-01-15T07:34:07.085Z,996.22
2019-01-15T07:35:07.120Z,996.21
2019-01-15T07:36:07.153Z,996.16
2019-01-15T07:37:07.190Z,996.19
2019-01-15T07:38:07.228Z,996.20
2019-01-15T07:39:07.262Z,996.17
2019-01-15T07:40:07.297Z,996.16
2019-01-15T07:41:07.334Z,996.08
2019-01-15T07:42:07.376Z,996.11
2019-01-15T07:43:07.405Z,996.07
2019-01-15T07:44:07.441Z,996.07
2019-01-15T07:45:07.478Z,995.99
2019-01-15T07:46:07.514Z,995.98
2019-01-15T07:47:07.554Z,996.01
2019-01-15T07:48:07.590Z,996.09
2019-01-15T07:49:07.631Z,996.03
2019-01-15T07:50:07.661Z,996.14
2019-01-15T07:51:07.705Z,996.06
2019-01-15T07:52:07.729Z,996.06
2019-01-15T07:53:07.773Z,996.07
2019-01-15T07:54:07.802Z,996.05
2019-01-15T07:55:07.838Z,996.01
2019-01-15T07:56:07.873Z,996.03
2019-01-15T07:57:07.911Z,996.07
2019-01-15T07:58:07.947Z,996.11
2019-01-15T07:59:07.982Z,996.07
2019-01-15T08:00:08.032Z,996.11
2019-01-15T08:01:08.055Z,996.06
2019-01-15T08:02:08.095Z,996.14
2019-01-15T08:03:08.128Z,996.10
2019-01-15T08:04:08.214Z,996.01
2019-01-15T08:05:08.210Z,996.03
2019-01-15T08:06:08.237Z,996.01
2019-01-15T08:07:08.274Z,996.08
2019-01-15T08:08:08.308Z,996.11
2019-01-15T08:09:08.354Z,995.98
2019-01-15T08:10:08.383Z,996.13
2019-01-15T08:11:08.568Z,996.12
2019-01-15T08:12:08.460Z,996.16
2019-01-15T08:13:08.490Z,996.16
2019-01-15T08:14:12.148Z,996.20
2019-01-15T08:15:08.564Z,996.16
2019-01-15T08:16:08.599Z,996.16
2019-01-15T08:17:08.634Z,996.12
2019-01-15T08:18:08.672Z,996.17
2019-01-15T08:19:08.714Z,996.15
2019-01-15T08:20:08.745Z,996.07
2019-01-15T08:21:08.786Z,996.11
2019-01-15T08:22:08.815Z,996.20
2019-01-15T08:23:08.855Z,996.11
2019-01-15T08:24:08.888Z,996.17
2019-01-15T08:25:08.925Z,996.21
2019-01-15T08:26:08.963Z,996.23
2019-01-15T08:27:09.006Z,996.17
2019-01-15T08:28:09.035Z,996.15
2019-01-15T08:29:09.079Z,996.08
2019-01-15T08:30:09.107Z,996.01
2019-01-15T08:33:09.213Z,996.00
2019-01-15T08:34:09.252Z,995.96
2019-01-15T08:35:09.289Z,995.95
2019-01-15T08:36:09.323Z,996.03
2019-01-15T08:37:09.462Z,996.04
2019-01-15T08:38:09.398Z,996.04
2019-01-15T08:39:09.436Z,996.02
2019-01-15T08:40:09.478Z,996.00
2019-01-15T08:41:09.507Z,996.00
2019-01-15T08:42:09.544Z,995.99
2019-01-15T08:43:09.580Z,995.96
2019-01-15T08:44:09.626Z,996.02
2019-01-15T08:45:09.669Z,995.99
2019-01-15T08:46:09.698Z,995.87
2019-01-15T08:47:09.727Z,995.87
2019-01-15T08:48:09.762Z,995.79
2019-01-15T08:49:09.798Z,995.80
2019-01-15T08:50:09.835Z,995.85
2019-01-15T08:51:09.881Z,995.91
2019-01-15T08:52:09.908Z,995.88
2019-01-15T08:53:09.943Z,995.75
2019-01-15T08:54:09.981Z,995.79
2019-01-15T08:55:10.016Z,995.79
2019-01-15T08:56:10.055Z,995.82
2019-01-15T08:57:10.090Z,995.77
2019-01-15T08:58:10.127Z,995.85
2019-01-15T08:59:10.166Z,995.74
2019-01-15T09:00:10.199Z,995.77
2019-01-15T09:01:10.239Z,995.81
2019-01-15T09:02:10.282Z,995.82
2019-01-15T09:03:10.311Z,995.83
2019-01-15T09:04:10.346Z,995.78
2019-01-15T09:05:10.383Z,995.82
2019-01-15T09:06:10.436Z,995.75
2019-01-15T09:07:10.456Z,995.87
2019-01-15T09:08:10.493Z,995.86
2019-01-15T09:09:10.529Z,995.89
2019-01-15T09:10:10.567Z,995.87
2019-01-15T09:11:10.604Z,995.93
2019-01-15T09:12:10.638Z,995.91
2019-01-15T09:13:10.675Z,995.84
2019-01-15T09:14:10.720Z,995.78
2019-01-15T09:15:10.751Z,995.80
2019-01-15T09:16:10.784Z,995.72
2019-01-15T09:17:11.270Z,995.72
2019-01-15T09:18:10.861Z,995.74
2019-01-15T09:19:10.895Z,995.71
2019-01-15T09:20:10.933Z,995.59
2019-01-15T09:21:10.970Z,995.53
2019-01-15T09:22:11.005Z,995.50
2019-01-15T09:23:11.054Z,995.47
2019-01-15T09:24:11.078Z,995.40
2019-01-15T09:25:11.113Z,995.42
2019-01-15T09:26:11.153Z,995.42
2019-01-15T09:27:11.188Z,995.51
2019-01-15T09:28:11.224Z,995.54
2019-01-15T09:29:11.261Z,995.52
2019-01-15T09:30:11.300Z,995.56
2019-01-15T09:31:11.336Z,995.53
2019-01-15T09:32:11.371Z,995.59
2019-01-15T09:33:11.410Z,995.59
2019-01-15T09:34:11.445Z,995.58
2019-01-15T09:35:11.490Z,995.61
2019-01-15T09:36:11.518Z,995.61
2019-01-15T09:37:11.553Z,995.56
2019-01-15T09:38:11.590Z,995.60
2019-01-15T09:39:11.627Z,995.53
2019-01-15T09:40:11.662Z,995.52
2019-01-15T09:41:11.701Z,995.61
2019-01-15T09:42:11.737Z,995.62
2019-01-15T09:43:11.774Z,995.63
2019-01-15T09:44:11.813Z,995.57
2019-01-15T09:45:11.848Z,995.64
2019-01-15T09:46:11.890Z,995.59
2019-01-15T09:47:11.923Z,995.64
2019-01-15T09:48:11.966Z,995.51
2019-01-15T09:49:11.997Z,995.52
2019-01-15T09:50:12.033Z,995.54
2019-01-15T09:51:12.069Z,995.53
2019-01-15T09:52:13.044Z,995.54
2019-01-15T09:53:12.140Z,995.51
2019-01-15T09:54:12.177Z,995.58
2019-01-15T09:55:12.314Z,995.58
2019-01-15T09:56:12.249Z,995.66
2019-01-15T09:57:12.287Z,995.76
2019-01-15T09:58:12.326Z,995.71
2019-01-15T09:59:12.361Z,995.71
2019-01-15T10:00:12.397Z,995.74
2019-01-15T10:01:12.433Z,995.78
2019-01-15T10:02:12.470Z,995.86
2019-01-15T10:03:12.542Z,995.81
2019-01-15T10:04:12.543Z,995.75
2019-01-15T10:05:12.589Z,995.75
2019-01-15T10:06:12.618Z,995.75
2019-01-15T10:07:12.655Z,995.81
2019-01-15T10:08:12.690Z,995.82
2019-01-15T10:09:12.728Z,995.83
2019-01-15T10:10:12.817Z,995.70
2019-01-15T10:11:12.802Z,995.71
2019-01-15T10:12:12.838Z,995.75
2019-01-15T10:13:12.876Z,995.76
2019-01-15T10:14:12.914Z,995.74
2019-01-15T10:15:12.948Z,995.77
2019-01-15T10:16:12.992Z,995.72
2019-01-15T10:17:13.022Z,995.70
2019-01-15T10:18:13.060Z,995.80
2019-01-15T10:19:13.098Z,995.75
2019-01-15T10:20:13.134Z,995.82
2019-01-15T10:21:13.171Z,995.80
2019-01-15T10:22:13.210Z,995.86
2019-01-15T10:23:13.303Z,995.78
2019-01-15T10:24:13.285Z,995.74
2019-01-15T10:25:13.319Z,995.75
2019-01-15T10:26:13.358Z,995.74
2019-01-15T10:27:13.395Z,995.79
2019-01-15T10:28:13.434Z,995.83
2019-01-15T10:29:13.476Z,995.79
2019-01-15T10:30:13.505Z,995.73
2019-01-15T10:31:13.542Z,995.72
2019-01-15T10:32:13.580Z,995.77
2019-01-15T10:33:13.617Z,995.75
2019-01-15T10:34:13.655Z,995.80
2019-01-15T10:35:13.841Z,995.82
2019-01-15T10:36:13.735Z,995.74
2019-01-15T10:37:13.764Z,995.72
2019-01-15T10:38:13.804Z,995.71
2019-01-15T10:39:13.840Z,995.76
2019-01-15T10:40:13.879Z,995.72
2019-01-15T10:41:13.914Z,995.69
2019-01-15T10:42:13.951Z,995.78
2019-01-15T10:43:13.989Z,995.70
2019-01-15T10:44:14.025Z,995.66
2019-01-15T10:45:14.078Z,995.69
2019-01-15T10:46:14.100Z,995.74
2019-01-15T10:47:14.137Z,995.73
2019-01-15T10:48:14.174Z,995.68
2019-01-15T10:49:14.214Z,995.69
2019-01-15T10:50:14.251Z,995.70
2019-01-15T10:51:14.289Z,995.75
2019-01-15T10:52:14.345Z,995.68
2019-01-15T10:53:14.364Z,995.73
2019-01-15T10:54:14.406Z,995.70
2019-01-15T10:55:14.440Z,995.63
2019-01-15T10:56:14.473Z,995.65
2019-01-15T10:57:14.513Z,995.64
2019-01-15T10:58:17.705Z,995.57
2019-01-15T10:59:14.589Z,995.59
2019-01-15T11:00:14.622Z,995.56
2019-01-15T11:01:14.660Z,995.61
2019-01-15T11:02:14.707Z,995.56
2019-01-15T11:03:14.737Z,995.46
2019-01-15T11:04:14.822Z,995.49
2019-01-15T11:05:14.809Z,995.53
2019-01-15T11:06:14.849Z,995.47
2019-01-15T11:07:14.886Z,995.43
2019-01-15T11:08:14.921Z,995.40
2019-01-15T11:09:14.962Z,995.43
2019-01-15T11:10:15.006Z,995.41
2019-01-15T11:11:15.034Z,995.45
2019-01-15T11:12:15.070Z,995.42
2019-01-15T11:13:15.111Z,995.44
2019-01-15T11:14:15.154Z,995.46
2019-01-15T11:15:15.184Z,995.51
2019-01-15T11:16:15.221Z,995.42
2019-01-15T11:17:15.258Z,995.46
2019-01-15T11:18:15.299Z,995.36
2019-01-15T11:19:15.334Z,995.37
2019-01-15T11:20:15.371Z,995.39
2019-01-15T11:21:15.412Z,995.35
2019-01-15T11:22:15.446Z,995.28
2019-01-15T11:23:15.485Z,995.26
2019-01-15T11:24:15.521Z,995.27
2019-01-15T11:25:15.569Z,995.28
2019-01-15T11:26:15.604Z,995.26
2019-01-15T11:27:15.637Z,995.18
2019-01-15T11:28:15.679Z,995.25
2019-01-15T11:29:15.711Z,995.16
2019-01-15T11:30:15.749Z,995.15
2019-01-15T11:31:15.787Z,995.14
2019-01-15T11:32:15.824Z,995.13
2019-01-15T11:33:15.863Z,995.13
2019-01-15T11:34:15.901Z,995.16
2019-01-15T11:35:15.943Z,995.16
2019-01-15T11:36:15.979Z,995.10
2019-01-15T11:37:16.014Z,995.18
2019-01-15T11:38:16.059Z,995.12
2019-01-15T11:39:16.089Z,995.09
2019-01-15T11:40:16.127Z,995.12
2019-01-15T11:41:16.164Z,995.09
2019-01-15T11:42:16.202Z,995.06
2019-01-15T11:43:16.242Z,995.07
2019-01-15T11:44:16.282Z,995.05
2019-01-15T11:45:16.317Z,995.00
2019-01-15T11:46:16.355Z,995.04
2019-01-15T11:47:16.398Z,995.05
2019-01-15T11:48:16.430Z,995.03
2019-01-15T11:49:16.466Z,995.02
2019-01-15T11:50:16.507Z,995.03
2019-01-15T11:51:16.543Z,994.97
2019-01-15T11:52:16.580Z,994.94
2019-01-15T11:53:16.619Z,994.99
2019-01-15T11:54:16.658Z,994.94
2019-01-15T11:55:16.696Z,994.99
2019-01-15T11:56:16.746Z,995.00
2019-01-15T11:57:16.770Z,994.99
2019-01-15T11:58:16.809Z,994.96
2019-01-15T11:59:16.847Z,994.91
2019-01-15T12:00:16.882Z,994.91
2019-01-15T12:01:16.920Z,994.89
2019-01-15T12:02:22.218Z,994.85
2019-01-15T12:03:17.010Z,994.93
2019-01-15T12:04:17.034Z,994.86
2019-01-15T12:05:17.073Z,994.88
2019-01-15T12:06:17.125Z,994.86
2019-01-15T12:07:17.149Z,994.87
2019-01-15T12:08:17.857Z,994.87
2019-01-15T12:09:17.221Z,994.86
2019-01-15T12:10:17.259Z,994.88
2019-01-15T12:11:17.306Z,994.86
2019-01-15T12:12:17.334Z,994.75
2019-01-15T12:13:17.374Z,994.81
2019-01-15T12:14:17.410Z,994.80
2019-01-15T12:15:17.449Z,994.76
2019-01-15T12:16:17.492Z,994.78
2019-01-15T12:17:17.532Z,994.74
2019-01-15T12:18:17.560Z,994.74
2019-01-15T12:19:17.598Z,994.73
2019-01-15T12:20:17.635Z,994.65
2019-01-15T12:21:17.674Z,994.67
2019-01-15T12:22:17.713Z,994.66
2019-01-15T12:23:17.755Z,994.68
2019-01-15T12:24:17.787Z,994.69
2019-01-15T12:25:17.825Z,994.62
2019-01-15T12:26:17.862Z,994.64
2019-01-15T12:27:17.914Z,994.71
2019-01-15T12:28:17.937Z,994.66
2019-01-15T12:29:17.977Z,994.64
2019-01-15T12:30:18.014Z,994.57
2019-01-15T12:31:18.108Z,994.58